Arambare, Brazil
Current Conditions -  °F | °C
As of 7:00 PM on Sunday 23 Nov 2014 (Local Time) from SBPA Reporting Station
Clear Clear  
Wind Chill: 79°   Ceiling: Unl
Heat Index: 79°   Visibility: 6mi
Dew Point: 50°   Wind: 12mph
Humidity: 36%   Direction: 110°ESE
Pressure: 29.91"   Gusts: NA
Location:  30.91°S, 51.5°W
Report Text: SBPA 232100Z 11010KT CAVOK 26/10 Q1013
Loading
Personal Weather Stations






























Interactive Weather Map New forecast layout! Learn more

10-Day Weather Forecast

Advertisements
Track Severe Weather on mobile